Velovelo
Português Nederlands 日本語 中文
Español English čeština slovenčina
русский italiano polski norsk
français Deutsch svenska عربي
 
 página anterior
 Enviar a amigos
 Para imprimir
 ---> Etape du Tour 2013 : du 3001ème au 4000ème

Cl...Dos.NomPrénomCat.C.cTemps..Montées
3001 3233 Jourdan Raymond E.hom 216 06:53:52 04:01:37
3002 1106 BAILLY Sebastien B.hom 1047 06:53:53 04:10:11
3003 2836 Pichot sebastien B.hom 926 06:53:55 03:57:28
3004 3190 MARTIN Dominique D.hom 721 06:53:57 03:58:11
3005 3287 Garcia Tesson ERIC C.hom 1396 06:53:58 04:01:53
3007 2441 barré jean-yves D.hom 838 06:54:01 04:07:01
3006 7558 Davies Stephen D.hom 347 06:54:01 03:32:07
3008 2444 Porter Martin D.hom 840 06:54:03 04:01:46
3009 1941 SCHROEDER Hervé C.hom 1617 06:54:03 04:18:10
3011 3260 forman eon C.hom 1286 06:54:04 03:49:12
3010 5499 Lyons Bob D.hom 532 06:54:04 03:41:43
3012 2633 justient michael B.hom 934 06:54:08 04:05:30
3013 3096 Copeland Adam C.hom 1371 06:54:09 03:48:22
3014 4103 meunier francois D.hom 638 06:54:13 03:59:10
3016 4065 closson michel D.hom 641 06:54:14 03:48:18
3015 6741 malengé éric D.hom 438 06:54:14 03:38:49
3017 3954 PROVINO Herve D.hom 759 06:54:17 03:52:11
3018 2921 HANNOYE Jérôme B.hom 943 06:54:18 04:12:20
3019 3882 Le Roux Alain E.hom 213 06:54:19 04:05:27
3020 5752 Chereau Olivier C.hom 1033 06:54:22 03:44:09
3022 7457 MARTIN Pascal D.hom 360 06:54:26 03:30:58
3021 9063 Monast Louis-Alexandre A.hom 190 06:54:26 03:22:22
3023 5234 LABBE Thomas B.hom 679 06:54:27 03:40:25
3024 6326 woodhouse brian C.hom 811 06:54:27 03:28:08
3025 4079 METAILLER MARC D.hom 647 06:54:30 03:49:54
3026 9312 Vitor Freitas Aguiar Vitor B.hom 342 06:54:31 03:19:10
3027 10990 JALICOUX Sébastien B.hom 937 06:54:31 03:59:10
3028 1494 CASTANIER Michel D.hom 958 06:54:32 04:08:47
3030 832 Poillot Romuald C.hom 1403 06:54:33 04:00:51
3029 3845 Atkinson Matt C.hom 1483 06:54:33 04:11:53
3031 6010 McCarthy Jon B.hom 882 06:54:33
3032 3567 Hobbs Lionel E.hom 210 06:54:35 03:58:31
3033 5775 BUNOD Jean-Michel C.hom 1067 06:54:36 03:48:23
3034 8665 Stross Oliver A.hom 301 06:54:37 03:39:18
3035 5537 Leroy Benoît A.hom 307 06:54:38 03:38:55
3036 1786 TARPIN Trivier D.hom 952 06:54:46 04:14:48
3037 3047 Chester Sue G.fem 56 06:54:46 03:47:33
3038 374 VERGNIEUX PHILIPPE C.hom 1862 06:54:47 04:25:50
3039 734 Pochot David C.hom 1772 06:54:48 04:20:26
3040 3206 nabet emmanuel C.hom 1411 06:54:55 04:15:52
3041 4026 pinel antoine B.hom 782 06:54:56 03:56:36
3042 2949 Norgate Craig C.hom 1476 06:54:57 04:10:09
3043 7737 Jukes Warren C.hom 482 06:54:57 03:16:43
3044 3428 Hiscox Mark C.hom 1414 06:54:59 04:00:15
3045 4993 martin françois D.hom 657 06:55:05 03:56:58
3046 4975 Rosen Andrew C.hom 1201 06:55:05 03:55:23
3047 4982 LAUMONT FREDERIC C.hom 1227 06:55:08 03:51:33
3048 2857 LAÏD FARES A.hom 400 06:55:08 03:55:40
3049 3920 LAINE BERNARD E.hom 197 06:55:09 04:01:52
3050 4156 polak pascal D.hom 679 06:55:13 03:54:41
3051 4041 aliaga jean-marie D.hom 685 06:55:14 03:46:34
3052 3033 kirk mark B.hom 892 06:55:14 04:03:41
3053 1930 STRAUSS Philippe D.hom 947 06:55:14 04:15:30
3054 7473 Rovira Ignacio C.hom 708 06:55:18 03:39:42
3055 5054 Chapman Paul B.hom 684 06:55:20 03:44:12
3056 9780 Brosnan John B.hom 401 06:55:22 03:28:51
3057 2963 Terblanche Villiers C.hom 1521 06:55:24 04:04:23
3058 10749 Posnett Richard B.hom 241 06:55:25 03:07:24
3059 9158 Bonnetain Arnaud C.hom 464 06:55:28 03:21:47
3060 6380 VANGASSE STEVE B.hom 604 06:55:31 03:37:56
3061 881 gaydon Fabrice C.hom 1830 06:55:32 04:22:46
3062 2094 Perchard Hilary C.hom 1524 06:55:35 04:10:47
3064 1281 leprovost jean D.hom 996 06:55:40 04:16:11
3063 4447 poirier christophe D.hom 652 06:55:40 03:56:20
3065 9195 MARNAS Vivien A.hom 209 06:55:41 03:24:42
3066 4050 van weymeersch jeremy B.hom 769 06:55:42 03:56:40
3067 1824 Lehner Christian C.hom 1721 06:55:45 04:22:18
3068 3801 Nicolas elzeard C.hom 1427 06:55:47 04:08:05
3069 1876 Vignaud Stéphane C.hom 1819 06:55:51 04:27:46
3070 4018 CHASSAGNARD PHILIPPE D.hom 694 06:55:55 03:57:56
3071 11333 winder steve C.hom 303 06:55:56 03:08:11
3072 4318 Stroupe Clark C.hom 1203 06:55:59 03:50:41
3073 4104 douvinet paul D.hom 683 06:56:00 03:53:57
3074 2805 TRAMEAU Thibaut A.hom 394 06:56:02 04:06:33
3075 2494 roualdes joel D.hom 891 06:56:06 04:18:35
3076 3988 Schwartz Taylor A.hom 365 06:56:09 03:57:39
3077 2936 GOTO YUTAKA D.hom 913 06:56:12 04:03:36
3078 4554 MALIBA BRUNO D.hom 669 06:56:16 03:56:22
3079 3095 Hannon James C.hom 1333 06:56:18 03:57:00
3080 2363 leservoisier thierry C.hom 1601 06:56:18 04:09:08
3081 4491 TERRIER DIDIER D.hom 702 06:56:19 04:02:15
3082 9671 VERNIER PHILIPPE C.hom 468 06:56:20 03:15:34
3083 3456 Gonçalves Reginaldo C.hom 1344 06:56:22 03:59:38
3084 2414 leray jean marie D.hom 901 06:56:24 04:05:06
3085 1042 NICOLAU ALAIN D.hom 1009 06:56:28 04:29:42
3086 3153 DERUDET YVES D.hom 1008 06:56:28
3087 5060 Rodrigues Clara F.fem 24 06:56:28 03:53:50
3088 4591 Faundez Antonio C.hom 1192 06:56:30 03:55:58
3089 4082 Hodges Simon C.hom 1245 06:56:31 03:57:36
3090 2499 leveau maurice E.hom 266 06:56:32 04:09:36
3092 2757 Swift Duncan C.hom 1576 06:56:33 04:10:49
3091 4056 Lucas Serge C.hom 1215 06:56:33 03:45:28
3094 4471 Nye Jonny C.hom 1392 06:56:37 04:05:31
3093 5660 RIGON Renaud E.hom 158 06:56:37 03:47:05
3095 8547 harrison john C.hom 1211 06:56:40
3096 6303 lebrun jean claude D.hom 489 06:56:44 03:48:30
3097 6333 HUMBERT Fabien A.hom 284 06:56:48 03:43:36
3098 3373 Wilson Charles C.hom 1390 06:56:53 04:10:39
3099 2559 deblock philippe D.hom 886 06:56:57 03:57:39
3100 5272 Knight David C.hom 1431 06:57:00 04:06:22
3101 11563 burgos jean-michel D.hom 169 06:57:00 03:20:18
3102 9314 Thomas Mark C.hom 548 06:57:01 03:27:37
3103 5721 Cupillard Lionel C.hom 1109 06:57:02 03:51:52
3104 2883 le gentil laurent C.hom 1532 06:57:03 04:09:23
3105 7685 Dew Tristan B.hom 571 06:57:03 03:40:43
3106 1242 SEVESTRE Dominique C.hom 1726 06:57:10 04:15:31
3107 8770 Schmets David B.hom 485 06:57:11 03:18:47
3108 4955 Jones Ryan B.hom 812 06:57:15 04:07:51
3109 7707 LEGRET Christophe C.hom 762 06:57:18 03:41:54
3110 4155 Hibberd Amanda G.fem 49 06:57:19 03:58:51
3112 3144 Mirfield Matt C.hom 1267 06:57:21 03:28:38
3111 1394 dumont bernard D.hom 1025 06:57:21 04:27:00
3113 1811 Ulmer Gary E.hom 294 06:57:23 04:18:05
3114 7715 austin paul C.hom 766 06:57:24 03:36:04
3115 9116 SCOPEL JOHANN C.hom 562 06:57:26 03:29:42
3116 4339 Arkwright Simon B.hom 772 06:57:27 03:47:43
3118 3168 SCHAEFFER JEAN PAUL D.hom 941 06:57:29 04:21:21
3117 1262 leboulanger patrick E.hom 300 06:57:29 04:24:20
3119 4880 Parker Gary C.hom 1271 06:57:33 03:53:53
3120 2232 SECHET Maurice E.hom 271 06:57:35 04:10:40
3121 8388 Holman Chris D.hom 869 06:57:36 04:12:26
3122 10763 VENEL Romuald A.hom 176 06:57:40 03:15:38
3123 2773 Erasmus Jaco C.hom 1539 06:57:42 04:11:51
3124 10300 CODBESSIN Vincent A.hom 213 06:57:43 03:25:58
3125 5640 Alexander Ewan C.hom 984 06:57:44 03:44:33
3126 7753 FOUR JEAN-CLAUDE E.hom 94 06:57:46 03:40:12
3127 4024 GUILMOIS Laurent B.hom 786 06:57:47 03:44:04
3128 2664 pessina anthony A.hom 403 06:57:49 04:15:43
3129 3365 bonte eric D.hom 817 06:57:53 04:04:32
3130 5773 Bodard Anthony C.hom 1135 06:57:53 03:50:23
3131 4597 RENARD OLIVIER C.hom 1236 06:57:56 03:59:04
3132 4813 CONSTANTIN dominick D.hom 710 06:57:58 03:53:32
3133 3661 NAEGELS ERIC D.hom 770 06:58:01 03:59:41
3134 6474 Zouigh Marc C.hom 908 06:58:01 03:48:56
3135 4649 DUBONNET GILBERT E.hom 196 06:58:03 03:57:04
3136 3659 Armstrong Benjamin B.hom 933 06:58:04 04:11:31
3137 3763 lagalisse yves E.hom 217 06:58:06 03:56:13
3138 1631 Collins Victoria G.fem 78 06:58:07 04:17:39
3139 2982 Borel René D.hom 909 06:58:10 04:08:07
3140 2192 Cogne Olivier D.hom 775 06:58:14 04:03:41
3141 5754 vernada yves D.hom 540 06:58:15 03:45:53
3142 10026 dumazel jean-paul D.hom 589 06:58:18 04:02:33
3143 10915 Luc-Pupat Hervé C.hom 1272 06:58:19 04:03:05
3144 1061 Silvestro Daniel E.hom 317 06:58:20 04:12:25
3145 6263 Fee Jason C.hom 974 06:58:21 03:45:54
3147 10826 Galloway Steve B.hom 306 06:58:23 03:18:22
3146 9834 durand christian D.hom 477 06:58:23 03:40:40
3149 2987 FRANZINI Frédéric D.hom 879 06:58:24 04:08:38
3148 4184 GATTI FRANCK C.hom 1298 06:58:24 03:37:09
3150 3907 pizzardini eddy C.hom 1375 06:58:25 03:51:39
3151 4462 MASSARE DRACON Edouard C.hom 1279 06:58:29 03:55:37
3152 4349 BOURRIOT JEROME C.hom 1301 06:58:31 03:58:41
3154 2346 McBride Denis C.hom 1613 06:58:32 04:10:06
3153 2191 laslaz pierre D.hom 929 06:58:32 04:20:02
3155 1269 GRÉAU Claude E.hom 319 06:58:37 04:21:43
3156 3347 COPIN Yves D.hom 826 06:58:40 04:11:38
3158 2525 mercier bruno E.hom 285 06:58:42 04:21:12
3157 2038 rousseau jmi D.hom 898 06:58:42 04:09:34
3159 4344 JOUBERT BRUNO C.hom 1309 06:58:43 03:57:55
3160 7137 Taylor John C.hom 815 06:58:45 03:39:15
3161 2158 MERDA HERVE C.hom 1574 06:58:48 04:04:40
3162 6960 Favre Hervé D.hom 490 06:58:49 03:45:15
3163 1184 PAPON Patrick E.hom 314 06:58:50 04:22:25
3164 5534 SEIGNE BERNARD D.hom 554 06:58:52 03:50:35
3165 1564 provou freddy D.hom 1002 06:58:53 04:13:21
3167 6839 Cotton Richard B.hom 611 06:58:54 03:35:48
3166 3641 Couillens Xavier C.hom 1410 06:58:54 03:53:30
3168 3044 Lueder Michael C.hom 1152 06:58:56 03:52:37
3169 9275 butter seb B.hom 382 06:58:57 03:20:16
3170 3332 Smelt David B.hom 919 06:58:58 04:06:32
3171 3885 marcone richard D.hom 837 06:59:00 04:01:49
3172 3438 Beauvisage Mikael C.hom 1496 06:59:01 04:11:17
3173 10843 Thorn Michael C.hom 392 06:59:02 03:16:05
3174 8453 Anderson Hugh C.hom 647 06:59:03
3175 8112 davison patrick C.hom 632 06:59:03 03:28:40
3177 5954 PICARD Bruno C.hom 1162 06:59:05 03:50:47
3176 4304 LAURENT FREDERIC C.hom 1609 06:59:05 04:08:26
3178 4303 JEANCON RODOLPHE C.hom 1608 06:59:06 04:11:07
3179 4235 Mordacq Guillaume D.hom 731 06:59:07 03:57:15
3180 3515 SILVERWOOD RHYS B.hom 945 06:59:08 03:56:08
3181 4059 KUPRESKI SACHA C.hom 1297 06:59:10 03:57:14
3182 5522 Robinson Rory D.hom 542 06:59:12 03:41:51
3183 4180 CHENEVAL Christine G.fem 46 06:59:13 03:55:30
3184 1943 JUHEL GAETAN D.hom 1020 06:59:14 04:16:51
3185 5480 pichon frederic B.hom 1012 06:59:15 04:11:16
3186 8849 davies christopher C.hom 672 06:59:16 03:35:17
3187 5004 BRUYNOOGHE Laurent C.hom 1131 06:59:18 03:56:26
3188 9308 Crone Rory C.hom 539 06:59:20 03:27:01
3189 5746 Clerc Benoit A.hom 325 06:59:20 03:38:36
3190 4045 FAURE PASCALE G.fem 55 06:59:21 03:52:29
3192 4965 Watelet Jacques E.hom 189 06:59:22 03:53:24
3191 4526 MIGNON Stephane B.hom 831 06:59:22 04:04:47
3194 3205 McPhail Thomas C.hom 1429 06:59:23 03:55:16
3193 3326 Treglown Simon C.hom 1428 06:59:23 03:55:10
3195 6028 COTTANCIN PHILIPPE D.hom 553 06:59:23 03:47:12
3196 3731 beill pierre E.hom 225 06:59:24 03:56:44
3197 3228 Boutemy Didier D.hom 803 06:59:25 04:00:26
3198 2057 Shaun Doyle C.hom 1596 06:59:25 04:12:15
3199 1531 FRAIZY Pierre C.hom 1740 06:59:28 04:15:52
3200 2858 PELLICCIA UMBERTO C.hom 1618 06:59:29 04:12:49
3201 3761 BOUSSON FRANCIS D.hom 791 06:59:30 03:54:28
3202 4789 fauchon eric B.hom 815 06:59:32 04:00:43
3203 2721 Bond Dan B.hom 1014 06:59:35 04:01:16
3204 8342 GROS Sébastien A.hom 257 06:59:36 03:36:54
3205 2145 NYS Alain E.hom 270 06:59:38 04:04:30
3206 5684 O’Neill Ryan C.hom 1141 06:59:40 03:56:26
3207 9117 BAUMARD Nicolas C.hom 571 06:59:40 03:28:35
3208 7420 SEGUIN Gilles E.hom 83 06:59:41 03:27:36
3209 4281 Lobb Campbell E.hom 191 06:59:42 03:52:53
3210 973 Impens Christophe C.hom 1237 06:59:43 03:47:57
3211 974 Buysse Anja G.fem 48 06:59:43 03:48:09
3212 2537 BINET ARNAUD B.hom 998 06:59:45 04:13:45
3213 3972 fenard xavier C.hom 1566 06:59:48 04:08:16
3214 3322 MONTRIEUL FRANCOIS D.hom 842 06:59:55 04:08:17
3215 3059 solety bertrand C.hom 1511 06:59:58 04:05:32
3216 8734 saby dominique D.hom 346 07:00:02 03:37:14
3218 2851 croker andrew E.hom 375 07:00:06 04:24:54
3219 2852 croker joanna G.fem 105 07:00:06 04:24:55
3217 4323 Richards Clive D.hom 680 07:00:06 03:46:36
3221 3132 Boissard Anthony A.hom 381 07:00:07 04:17:22
3220 3423 BIAUNIER JEAN-MARIE D.hom 801 07:00:07 04:08:43
3222 4021 RIOL Pierre D.hom 723 07:00:12 03:59:47
3223 3476 moinier marc E.hom 250 07:00:13 04:06:59
3225 3031 Simon Philip D.hom 828 07:00:14 04:00:59
3224 6531 ELLISON ANTHONY B.hom 944 07:00:14 04:00:26
3226 5481 van der Laan René C.hom 1148 07:00:20 03:43:08
3227 2313 Preece Michael E.hom 289 07:00:21 04:10:36
3229 4615 CHEVROLAT Sébastien B.hom 816 07:00:25 03:31:58
3228 3416 LANGLOIS Matthieu C.hom 1506 07:00:25 04:00:34
3230 1789 fargier gilles D.hom 1051 07:00:29 04:22:39
3231 12115 BARDET Robert E.hom 176 07:00:31 03:53:55
3232 4675 Stuart Ian C.hom 1334 07:00:33 03:31:55
3233 3737 Lefevre Andeew C.hom 1466 07:00:34 04:01:08
3234 839 Beaumont Claire F.fem 59 07:00:35 04:18:59
3235 1647 contin grazia G.fem 90 07:00:35 04:13:05
3236 7662 O’Sullivan Timothy C.hom 821 07:00:40 03:29:50
3237 7623 O’Dea Garry C.hom 820 07:00:40 03:29:53
3238 1833 PASTOR ADRIEN A.hom 437 07:00:44 03:49:16
3239 4322 Gassmann Emile B.hom 849 07:00:47 03:55:09
3240 6562 brachet laurent C.hom 973 07:00:49 03:46:05
3241 8545 Moran Jake C.hom 565 07:00:53 03:19:24
3242 3175 PERRIER Herve D.hom 854 07:00:55 04:05:22
3243 10228 menza gianpiero A.hom 239 07:00:59 03:24:45
3244 4453 Thurlow Steven James C.hom 1243 07:01:02 03:47:27
3245 3361 IMARD EDDY C.hom 1494 07:01:02 04:04:01
3246 2020 Brendan Leahy E.hom 296 07:01:06 04:08:16
3248 4236 Thomas Carolyn G.fem 62 07:01:07 04:01:37
3247 3961 Harrington David C.hom 1460 07:01:07 03:56:29
3249 10860 Schale Frank D.hom 495 07:01:09 03:40:40
3250 9105 Achterberg Nick C.hom 569 07:01:12 03:24:05
3251 3200 MEYER SERGE D.hom 983 07:01:13 04:16:46
3252 4278 bernard philippe C.hom 1138 07:01:14 03:41:13
3253 7070 Leiser Kolja B.hom 600 07:01:19 03:38:49
3254 6334 Caruso Hadrien B.hom 696 07:01:19 03:49:55
3256 8525 Pinckney Richard B.hom 399 07:01:24 03:23:17
3255 3282 GASBLAN MAX D.hom 866 07:01:24 04:10:31
3257 4370 ZAZA ERIC D.hom 760 07:01:27 04:07:38
3258 6893 Ruffy Paul B.hom 674 07:01:28 03:42:36
3259 6910 Endler Peter C.hom 1053 07:01:30 03:47:21
3260 2546 vacaresse michel D.hom 969 07:01:30 04:12:18
3261 3351 VIET FRANCIS E.hom 237 07:01:31 03:57:22
3262 3594 MOTTET Patrick E.hom 232 07:01:32 03:57:58
3264 3180 chartier dominique E.hom 243 07:01:33 04:08:15
3263 8916 MICLO Daniel C.hom 642 07:01:33 03:28:31
3265 2567 SCHMITT GUY D.hom 954 07:01:34 04:17:37
3266 4138 royot éric D.hom 738 07:01:42
3268 2595 MAZZEGA JULIEN C.hom 1700 07:01:46 04:09:35
3267 3056 Andrieux Benjamin A.hom 378 07:01:46 04:06:41
3269 2665 mauguin philippe D.hom 931 07:01:53 04:12:24
3270 6378 MCGROARTY ANDREW B.hom 671 07:01:56
3272 3602 VILLENAVE JEAN CLAUDE E.hom 247 07:01:57 04:03:48
3271 874 PERES ANA G.fem 100 07:01:57 04:08:38
3273 2990 Wingrove Chris B.hom 1017 07:01:58 03:56:18
3274 3620 Albert Roland E.hom 259 07:02:02 04:08:38
3275 4963 Clen-Murphy Wayne B.hom 876 07:02:07 04:05:13
3276 11407 Willmott Matthew B.hom 371 07:02:11 03:27:44
3278 3272 PRUDENT sebastien C.hom 1534 07:02:12 04:07:18
3277 4348 Crozier Gavin C.hom 1285 07:02:12 04:02:53
3279 7761 THOUVENOT Laurent D.hom 435 07:02:13 03:44:34
3280 2246 COURCOT Philippe E.hom 287 07:02:14 04:10:28
3281 1706 ROUGER Damien C.hom 1775 07:02:15 04:14:35
3282 11336 cradick richard C.hom 488 07:02:16 03:23:13
3283 6608 Stern Vincent C.hom 1078 07:02:17 03:52:44
3284 3149 LECOCQ Jean D.hom 811 07:02:18 04:11:27
3285 4488 Cosgrove Neil B.hom 836 07:02:19 03:58:29
3286 5708 mueller joerg B.hom 745 07:02:20 03:45:24
3287 7882 mooney paul B.hom 601 07:02:21 03:38:15
3288 4828 Wakeland Steven D.hom 766 07:02:22 03:58:40
3289 9106 Poulter Damian B.hom 691 07:02:30 03:37:38
3290 2243 BOURGOUIN Philippe D.hom 967 07:02:31 04:24:50
3292 6760 Pagani Angelo D.hom 547 07:02:32 03:51:53
3291 3329 DELLA LIBERA JEAN PIERRE E.hom 249 07:02:32 04:04:44
3293 11003 Frey Max-André C.hom 466 07:02:33 03:19:03
3294 2131 GARCIA GUSTAVO B.hom 1058 07:02:34 04:17:02
3295 3613 destruel jean françois E.hom 239 07:02:36 03:57:52
3297 3508 MELINAND PHILIPPE B.hom 975 07:02:37 04:01:09
3296 5753 BELOTTI BENOIT B.hom 790 07:02:37 03:55:46
3298 1462 Nicolet Alexandre C.hom 1820 07:02:42 04:26:57
3299 3187 CONSTANT ROMAIN B.hom 977 07:02:45 04:09:49
3301 4105 Buraas Bjoern C.hom 1405 07:02:50 04:02:36
3300 8858 Crichton David B.hom 540 07:02:50 03:32:43
3302 8701 Kiriyama Shigeki B.hom 460 07:02:51 03:30:56
3303 8153 lacroix philippe E.hom 104 07:02:54 03:42:43
3304 3164 rollet philippe C.hom 1478 07:02:56 04:11:11
3305 5305 Hamilton Ian D.hom 625 07:02:57 03:41:22
3306 2788 Dixon Nick D.hom 990 07:02:58 04:09:06
3308 2482 SELLIER Laurent C.hom 1695 07:03:01 04:12:37
3307 2421 AUFRERE ALAIN E.hom 290 07:03:01 04:08:28
3309 1585 PITOT marc E.hom 335 07:03:02 04:21:49
3310 8150 Peter Preston B.hom 537 07:03:02 03:27:50
3312 5482 Blais Sylvain C.hom 1091 07:03:05 03:44:40
3311 11639 Hewitt Tom C.hom 1224 07:03:05 03:46:52
3313 5040 GIRAUD Frederic C.hom 1193 07:03:06 03:51:38
3314 3294 chastel alain E.hom 261 07:03:07 04:03:11
3315 3335 gabez herve C.hom 1561 07:03:10 04:12:51
3316 3503 Teyssier Robert E.hom 254 07:03:11 03:59:50
3317 2642 Michael Loose C.hom 1627 07:03:11 04:02:33
3318 3131 KOTZYBA JEROME C.hom 1491 07:03:12 03:56:54
3319 3701 GRUOSSO Christophe C.hom 1553 07:03:13 04:18:54
3320 5574 Lambert joel C.hom 1167 07:03:15 03:53:07
3321 11160 Townend Lee C.hom 500 07:03:20
3322 4165 POULET JACQUES D.hom 751 07:03:20 04:07:43
3323 2911 duroy thierry C.hom 1639 07:03:23 04:12:54
3324 9693 Johnston Ewan B.hom 441 07:03:23 03:23:05
3325 1727 METAYER marc D.hom 1052 07:03:28 04:12:52
3326 2059 Rogers Robert C.hom 1487 07:03:29 04:08:32
3327 818 AMEYE Thierry D.hom 1195 07:03:35 04:27:21
3328 6321 Letelier Marcial D.hom 536 07:03:38 03:39:55
3329 3462 perichart patrick C.hom 1217 07:03:39 03:44:19
3330 12157 Crisp Dominic B.hom 608 07:03:39 03:39:01
3331 2043 gascard lionel D.hom 978 07:03:46 04:09:36
3332 2400 HOULLIER Francis D.hom 972 07:03:46 04:12:02
3334 6383 sparks andrew C.hom 1069 07:03:54 03:39:23
3333 2841 Hugonnard Alex C.hom 1636 07:03:54 04:11:08
3335 2654 GALINDO Denis D.hom 994 07:03:56 04:19:18
3336 3909 Gordon Andrew C.hom 1519 07:03:57 04:08:10
3337 9113 o’sullivan Rory B.hom 1063 07:03:59 04:21:25
3338 1821 thevenoud jean-noel D.hom 1063 07:04:00 04:21:55
3339 5037 PIERREJEAN Yannick B.hom 754 07:04:01 03:40:52
3340 13772 HALBIN Vincent C.hom 344 07:04:02 03:19:28
3341 5239 vialettes maurice E.hom 244 07:04:04 03:57:01
3343 2924 Leopold Roger E.hom 283 07:04:05 04:02:51
3342 3429 CORJON Mathieu B.hom 965 07:04:05 04:13:15
3344 5207 KOWALYSZYN STEVE B.hom 795 07:04:06 03:48:55
3345 4217 montagnon christophe C.hom 1359 07:04:08 03:58:44
3346 3111 Nicolai Michael D.hom 862 07:04:10 04:05:19
3347 3061 Wells Nick C.hom 1528 07:04:11 04:07:23
3348 11332 winder asa C.hom 426 07:04:13 03:21:40
3349 5304 lefebvre bruno D.hom 682 07:04:15 03:54:35
3350 1338 legouhy jean-marie D.hom 1058 07:04:16 03:48:27
3351 8001 ROYER JEAN YVES D.hom 376 07:04:17 03:39:27
3352 4078 Prendergast Paul C.hom 1323 07:04:19 03:43:56
3353 6451 Gonnet Alexandre C.hom 1088 07:04:19 03:40:52
3354 4671 Boyes-Hunter Clive C.hom 1416 07:04:20 03:57:37
3355 11466 MITRIONE ANDREA C.hom 506 07:04:21 03:20:48
3356 730 Millaud bernard D.hom 1181 07:04:21 04:33:36
3357 6160 FitzGerald David C.hom 883 07:04:22 03:35:30
3358 3380 dubois laurent C.hom 1501 07:04:27 03:56:19
3359 6601 Toury Stéphane B.hom 681 07:04:33 03:22:56
3360 6418 Vallerent Fabrice C.hom 1023 07:04:35 03:44:54
3361 9616 Stucker Fabien B.hom 444 07:04:35 03:30:29
3362 4436 eldret liam B.hom 508 07:04:36 03:32:27
3363 7731 OUHMID Younes B.hom 586 07:04:37 03:34:56
3364 2375 Corbineau Daniel C.hom 1771 07:04:43 04:09:09
3365 2530 PEYRAVERNEY PHILIPPE C.hom 1692 07:04:46 04:13:47
3366 299 bigot nicolas C.hom 997 07:04:47 03:45:30
3367 2947 baldan ernesto D.hom 1011 07:04:48 04:12:42
3368 4427 ANDRIEUX Philippe D.hom 885 07:04:51 04:07:49
3369 7431 kantarjian berj D.hom 452 07:04:51 03:44:52
3370 1820 Whittingham Ian C.hom 1850 07:04:52 04:30:44
3371 1406 Léger Pascal C.hom 1866 07:04:52 04:20:10
3372 4416 wright dominique D.hom 768 07:04:54 04:06:16
3373 6806 Johnson Tony A.hom 309 07:04:56 03:49:23
3375 3363 PARRY Yves A.hom 396 07:04:57 03:58:16
3374 4020 PERTUISEL CLAUDE E.hom 207 07:04:57 03:54:01
3376 7529 Hunter Steven B.hom 603 07:04:58 03:36:13
3377 4771 rondin christian E.hom 223 07:05:00 04:00:24
3378 9920 chevallier hugo A.hom 181 07:05:01 03:12:55
3379 787 Moreira Natalia F.fem 68 07:05:02 04:15:02
3380 5393 colwill robert B.hom 809 07:05:03 04:04:21
3381 1875 kostadinov tchavdar D.hom 1073 07:05:05 04:29:42
3382 4452 Leatherbarrow Andrew B.hom 877 07:05:06
3383 3686 burnod guy E.hom 273 07:05:08 04:16:52
3384 2734 Moraes Luiz B.hom 1054 07:05:09 04:00:11
3385 9286 Tissot Didier C.hom 592 07:05:12 03:23:49
3386 1800 SAGUEZ FABIEN C.hom 1828 07:05:14 04:20:12
3387 4072 Matrat Alain E.hom 224 07:05:16 04:07:35
3388 8224 Hughes Pete B.hom 567 07:05:19 03:37:22
3389 1547 LETELLIER Florian B.hom 1148 07:05:28 04:24:23
3390 7720 Bayliss Josh C.hom 935 07:05:33 03:44:29
3391 7693 Hayden Mark C.hom 891 07:05:43 03:42:01
3392 8908 Chénais Daniel D.hom 404 07:05:47 03:41:01
3393 5888 vanotti aldo D.hom 668 07:05:54 03:57:22
3394 4529 RAY GEORGES E.hom 229 07:05:59 04:08:03
3395 6794 Spzojnarowicz Chris C.hom 1133 07:06:05 03:45:46
3396 6198 husson cyrille B.hom 682 07:06:05 03:40:36
3397 9561 Ruse Damian B.hom 477 07:06:06 03:35:50
3398 1847 BOUCHEZ Benjamin A.hom 456 07:06:09 04:28:02
3399 4144 Mera Steve E.hom 218 07:06:13 04:02:07
3400 3333 Lemire Daniel E.hom 277 07:06:13 04:15:25
3401 2710 ORLHAC Sébastien C.hom 1778 07:06:16 04:12:48
3404 4284 Cormier Renaud C.hom 1468 07:06:17 04:07:44
3402 4224 Henry jean-paul E.hom 240 07:06:17 03:59:11
3403 6908 rolandez eric C.hom 1144 07:06:17 03:52:56
3405 7691 gros théophile C.hom 877 07:06:23 03:42:37
3406 5112 Parry Nicholas C.hom 1255 07:06:24 03:59:24
3407 5113 Hummel Simon C.hom 1258 07:06:24 03:59:17
3408 3635 BONNET Renaud C.hom 1556 07:06:29 04:09:37
3409 2390 Weiss Daniel C.hom 1380 07:06:29 04:02:14
3410 5757 lalouette alain D.hom 712 07:06:31 03:58:50
3411 5528 Darwell-Stone Julian D.hom 640 07:06:32 03:49:25
3412 3448 Patroklos Healey C.hom 1527 07:06:33 04:09:23
3413 2574 OUILLON Fabien B.hom 1100 07:06:34 04:05:11
3414 4317 Palmer Stuart C.hom 1376 07:06:35 03:56:23
3415 4313 Palmer Simon C.hom 1374 07:06:35 03:50:16
3416 4193 LAMIC JACQUES D.hom 917 07:06:36 04:02:07
3417 1715 MAURIS FREDERIC C.hom 1944 07:06:38 04:36:39
3418 7370 formisaro philippe D.hom 462 07:06:39 03:39:38
3419 5018 PELLERIN lionel B.hom 824 07:06:40 03:54:19
3420 4804 VAGNEUX PHILIPPE C.hom 1437 07:06:40 04:05:52
3421 10198 Edward Bird A.hom 226 07:06:41 03:17:32
3424 7885 CURT STEPHANE C.hom 991 07:06:42 03:39:06
3422 10723 bebien laurent B.hom 403 07:06:42 03:23:14
3423 1534 calmels frederic C.hom 1943 07:06:42 04:35:12
3426 2337 fessard jean pierre E.hom 316 07:06:47 04:16:25
3425 8537 BARRAGAN CACERES ADRIAN B.hom 753 07:06:47 04:00:44
3427 7434 kennedy chris B.hom 647 07:06:48 03:43:03
3428 2630 VIENNE Régis C.hom 1804 07:06:48 04:25:18
3430 8629 Thomasson William A.hom 324 07:06:49 03:41:16
3429 9483 choain franck B.hom 657 07:06:49 03:40:24
3431 8953 Smith Rachel F.fem 13 07:06:53 03:41:10
3432 9728 FABRO GELSON B.hom 993 07:06:55 04:13:06
3433 4285 PROVENT Gérard D.hom 802 07:06:58 04:05:49
3434 9888 barberi-ettaro giovanni E.hom 167 07:07:02 03:50:27
3435 4467 WEESS Christian D.hom 778 07:07:03 04:01:10
3436 3546 LE NEURES CHRISTOPHE D.hom 921 07:07:03 04:16:27
3437 3219 desnoix michel E.hom 275 07:07:04 04:06:40
3439 2774 Evans Tim B.hom 623 07:07:05 03:30:14
3438 5297 Butler David D.hom 719 07:07:05 03:55:29
3440 5251 thomas franck C.hom 1281 07:07:06 03:56:27
3441 1769 kei tsumagari B.hom 1181 07:07:10 04:35:10
3442 207 Merle Johann B.hom 1145 07:07:11 04:12:28
3443 9424 enjalric yves D.hom 341 07:07:11 03:38:44
3444 9632 HYDES RALPH B.hom 515 07:07:13 03:33:30
3445 4981 Voyant Guy E.hom 221 07:07:15 03:55:22
3446 5835 Glynn Jamie B.hom 874 07:07:18 03:53:38
3447 6685 Colin Youenn C.hom 1087 07:07:22 03:35:00
3448 6669 TUFFREAU ROBIN D.hom 587 07:07:23 04:06:28
3449 5896 FOULON DAVID B.hom 873 07:07:24 04:02:55
3450 4280 REVELLI Pierre D.hom 784 07:07:26 04:02:06
3451 4109 CAILLAUD JEROME B.hom 887 07:07:27 03:58:02
3452 6345 poiseau fabrice C.hom 1129 07:07:28 03:39:11
3454 2961 mahieu francois C.hom 1732 07:07:29 04:21:18
3453 3803 COUDRAIS JOEL E.hom 280 07:07:29 04:10:42
3456 3944 Little Colin E.hom 264 07:07:32 04:13:03
3455 3016 GARNIER Dominique D.hom 950 07:07:32 04:20:45
3457 3766 Katz Joel D.hom 949 07:07:35 04:12:55
3458 4525 bacchi robert C.hom 1498 07:07:35 04:03:15
3459 7544 Tiernan Stephen A.hom 333 07:07:36 03:47:41
3460 5621 BERNIER Stéphane C.hom 1260 07:07:38 03:51:13
3461 8142 Márcio Raniery Cruz de Meireles B.hom 597 07:07:39 03:42:06
3462 6618 boyd james B.hom 737 07:07:41 03:43:16
3463 3271 chastang ludovic A.hom 401 07:07:46 04:02:52
3464 7003 LECLERCQ Aline F.fem 16 07:07:50 03:35:06
3465 4458 Sautter Ben C.hom 1404 07:07:56 03:56:38
3466 3813 Thomas Thierry D.hom 877 07:08:00 03:49:55
3467 6757 Andresen Simen B.hom 716 07:08:03 03:48:39
3468 2528 pallatin pascal C.hom 1827 07:08:04 04:15:47
3469 8426 Lagarde David C.hom 781 07:08:06 03:35:38
3470 11435 saponari nicola B.hom 402 07:08:06 03:23:43
3471 4211 Boyle Eugene D.hom 890 07:08:08
3472 11400 CONNER MATTHEW A.hom 212 07:08:09 03:26:27
3473 3839 LE PENNEC SYLVAIN C.hom 1621 07:08:12 04:08:44
3474 7649 VERGEZ Alain C.hom 992 07:08:12 03:48:19
3475 11265 Berrigan Tom D.hom 1031 07:08:16 04:11:05
3476 4886 Somermeyer Gregg D.hom 799 07:08:18 03:57:29
3477 4101 sacchet jacques E.hom 248 07:08:31 04:01:32
3478 6385 LAFON Patrick C.hom 1158 07:08:32 03:51:46
3479 2988 MEYNIEL René E.hom 311 07:08:35 04:13:40
3480 2682 Casey James B.hom 1091 07:08:38 04:18:52
3481 3116 dubol cédric A.hom 416 07:08:40 04:10:21
3482 5878 ANTZEMBERGER MICHEL D.hom 740 07:08:40 04:06:13
3483 3993 PREVOST PHILIPPE C.hom 1644 07:08:41 04:19:08
3485 4910 Falcoz Laurent C.hom 1513 07:08:42 04:05:00
3486 3408 Eglon Richard D.hom 955 07:08:42 04:14:16
3484 12498 bohin raphael B.hom 289 07:08:42 03:10:41
3487 7594 Adamson Euan B.hom 670 07:08:44 03:42:56
3488 7448 CHAUDIER DIDIER C.hom 1013 07:08:46 03:46:12
3489 5629 FERRARO PASCAL C.hom 1319 07:08:49 03:59:45
3490 7468 Axiom Barry B.hom 656 07:08:51 03:40:24
3491 2164 DAVOUST DANIEL D.hom 1037 07:08:51 04:11:27
3492 6758 Mæhlum Erik B.hom 729 07:08:52 03:49:32
3493 4796 BROUTIN Olivier A.hom 385 07:08:52 04:13:09
3494 5066 vaz victor A.hom 357 07:08:53 04:03:10
3495 4282 Albernaz Flavio Boechat B.hom 932 07:08:55 03:59:17
3496 5960 broccardo aurélien A.hom 367 07:08:56 04:03:40
3497 6514 Lewis John C.hom 1101 07:08:56 03:50:57
3498 2456 GILLIS Vincent C.hom 1765 07:08:59 04:26:50
3499 6469 Strazzeri Hugo A.hom 330 07:09:00 03:50:11
3500 4086 TILMANT Alain D.hom 783 07:09:00 03:53:26
3501 8476 humbert florian C.hom 767 07:09:02 03:34:07
3502 4030 JANSSENS Pascal D.hom 857 07:09:05 04:03:51
3503 4130 MILLET Frédéric C.hom 1436 07:09:05 03:53:48
3505 4042 dalanson patrick C.hom 1493 07:09:06 04:03:14
3504 3165 GUET PATRICE D.hom 912 07:09:06 04:12:26
3506 2119 Dewein Patrick C.hom 1742 07:09:10 04:04:00
3507 4320 JOLY FRANCOIS B.hom 920 07:09:12 04:02:22
3508 3591 pybus james C.hom 1585 07:09:14 04:05:56
3509 3174 Cadoux Philippe D.hom 923 07:09:14 04:15:53
3510 3547 Burns Ben A.hom 421 07:09:15 04:00:43
3511 3671 fourtin myriam G.fem 76 07:09:17 04:12:19
3512 8416 Hass Detlef C.hom 1305 07:09:17 04:04:03
3513 2937 bruerre sebastien C.hom 1755 07:09:19 04:31:23
3514 5565 pickard gareth C.hom 1842 07:09:23 04:13:48
3515 8789 DENOYELLE STEPHANE C.hom 1163 07:09:24 03:49:06
3516 2995 HUISSOUD GERARD C.hom 1779 07:09:25 04:15:44
3517 4638 Ghesquiers Pierre E.hom 253 07:09:26 04:16:36
3519 2976 Tamlyn Benedict F.fem 52 07:09:28 04:13:40
3518 5698 Van der Weerdt Romke C.hom 1302 07:09:28 03:57:05
3520 3935 LESBATS Stephane C.hom 1611 07:09:29 04:17:59
3521 12448 Coarsey David C.hom 1074 07:09:31 03:45:13
3522 2318 oliveira luis D.hom 1081 07:09:32 04:04:53
3523 11150 Madejak Boguslaw D.hom 198 07:09:33 03:22:20
3524 4906 Michalak Richard C.hom 1459 07:09:33 03:49:50
3525 10148 Rossero Jean-michel C.hom 750 07:09:34 03:35:32
3526 6538 zeisser pascal C.hom 1803 07:09:38 04:25:24
3528 2153 VEAU Patrick D.hom 1056 07:09:44 04:23:08
3527 2312 Bieber Thierry C.hom 1802 07:09:44 04:18:02
3529 2750 testu frederic C.hom 1756 07:09:45 04:15:39
3530 4555 monier christian C.hom 1443 07:09:48 03:57:49
3531 3246 girard de langlade philippe D.hom 907 07:09:49 03:55:48
3532 4182 heinmets indrek B.hom 910 07:09:50 04:12:10
3533 4274 GELINET Cyril B.hom 972 07:09:52 04:05:25
3534 1595 SCHARBARG Loïc D.hom 1121 07:09:53 04:15:30
3535 4723 Pitty Ben B.hom 948 07:09:54 03:59:50
3536 3510 Da Silva Eduardo D.hom 975 07:09:56 04:10:52
3537 9264 Eusebio Manuel C.hom 1358 07:09:56 04:08:20
3538 3461 CRAPSKY Michel E.hom 282 07:09:58 04:09:26
3540 8232 Eldridge Steve C.hom 881 07:09:59 03:38:43
3539 7947 Tiberghien Hervé C.hom 957 07:09:59 03:39:34
3541 1552 BERNARDINI Andre E.hom 381 07:10:00 04:30:00
3542 5376 croni mickael C.hom 1372 07:10:01 04:02:35
3543 5424 NAHLYJ Sylvain C.hom 1287 07:10:03 03:53:21
3545 5282 poli robert D.hom 734 07:10:03 04:01:25
3546 964 Callewaert Aurelien A.hom 483 07:10:03 04:53:03
3544 9330 groslier philippe C.hom 1176 07:10:03 03:41:45
3547 6463 ADAM Cedric A.hom 443 07:10:06 04:20:41
3548 4265 monk ian B.hom 898 07:10:12 03:58:09
3549 7733 Pierre Stéphane C.hom 965 07:10:15 03:35:04
3550 9743 Shipton Daniel A.hom 449 07:10:16 04:14:30
3551 9857 douville nicolas B.hom 526 07:10:21 03:30:11
3552 1425 JAEGER Jean-Claude D.hom 1134 07:10:22 04:32:21
3553 4081 grosperrin philippe D.hom 845 07:10:26 04:13:19
3554 4147 GERARDIN DENIS D.hom 809 07:10:27 04:00:49
3555 5387 clair stephane C.hom 1348 07:10:29 04:01:11
3556 3688 dumoulin pierre E.hom 295 07:10:30 04:10:46
3557 2362 marco jerome B.hom 1139 07:10:31 04:28:29
3559 6414 chambon patrick D.hom 639 07:10:37 03:49:22
3558 7607 BATCHELOR MELANIE G.fem 36 07:10:37 03:42:19
3560 2946 castay nicolas B.hom 1156 07:10:43 04:13:20
3561 2137 TRIMOULET DOMINIQUE C.hom 1824 07:10:46 04:21:27
3562 6698 BARKER WILL B.hom 751 07:10:49 03:55:54
3563 9162 Marchand Laurent C.hom 748 07:10:50 03:36:46
3564 9908 levet alexandre B.hom 479 07:10:53 03:35:32
3565 2462 Tim Gentry C.hom 1857 07:10:53 04:18:07
3566 5186 tisler denis C.hom 1274 07:10:56 03:49:59
3567 5179 Sancho Comes Gabriel .hom 2 07:10:59 03:57:49
3568 6740 annoye guillaume B.hom 792 07:11:01 04:05:10
3569 4381 LEGENDRE DANIEL D.hom 865 07:11:01 03:59:59
3570 10830 Aune John C.hom 595 07:11:03 03:30:41
3571 13874 moyencourt mickael C.hom 417 07:11:04 03:17:29
3572 7527 Decarroz Gerard E.hom 141 07:11:05 03:50:42
3575 6719 Farcot David B.hom 750 07:11:06 03:43:57
3574 6569 Croft Jonathan A.hom 326 07:11:06 03:45:44
3573 3802 ROBINET Bruno B.hom 1037 07:11:06 04:01:46
3576 2865 COLLOVRAY Gilles C.hom 1859 07:11:08 04:20:48
3577 4770 MARANDET CLAUDE E.hom 256 07:11:10 04:06:41
3578 6402 Johnson Rebecca G.fem 44 07:11:10 03:53:09
3579 5117 Pene Eric B.hom 818 07:11:11 03:52:07
3580 5011 Dedeyne Serge B.hom 845 07:11:15 03:58:46
3581 10802 avenel franck D.hom 241 07:11:16 03:20:26
3582 5524 day nicholas C.hom 1354 07:11:18 03:53:35
3584 5555 Staite Richard C.hom 1283 07:11:23 03:56:22
3583 5271 Porter Russell A.hom 384 07:11:23 03:57:32
3585 4067 Richard Benoit A.hom 383 07:11:24 03:55:31
3587 4238 cuyollaa patrice C.hom 1463 07:11:27 03:57:25
3586 3512 Curci Lorenzo B.hom 1053 07:11:27 04:15:28
3588 4127 savary alain E.hom 245 07:11:29 03:56:34
3589 2592 milville laurent C.hom 1787 07:11:33 04:27:19
3590 6361 Moulas Guy D.hom 596 07:11:38 03:57:34
3591 4713 MARTIN FREDERIC D.hom 830 07:11:39 04:06:08
3593 5458 Draycott Gez C.hom 1350 07:11:42 03:58:24
3592 8373 George Jennifer F.fem 14 07:11:42 03:37:43
3594 1728 LEFERME Ludovic C.hom 1953 07:11:44 04:16:36
3595 981 MALTAVERNE PHILIPPE D.hom 1251 07:11:47 04:29:45
3596 5477 weir Barry C.hom 1363 07:11:48 04:01:28
3597 2860 LE GUEN XAVIER B.hom 1159 07:11:49 04:18:31
3598 4719 FODERE FRANZ C.hom 1481 07:11:50 04:07:00
3599 5995 Portmann Emmanuel C.hom 1409 07:11:52 04:05:53
3600 3241 GAUTHIER ANTOINE C.hom 1630 07:11:56 04:14:21
3603 3526 DEGROLARD Patrick D.hom 1103 07:12:00 04:27:05
3602 8945 PERRET Phillipe C.hom 1472 07:12:00 04:00:21
3601 8726 bailly laurent C.hom 939 07:12:00 03:46:52
3604 8242 Ballantyne David D.hom 471 07:12:01 03:44:48
3605 7846 DETHEZ Frederic C.hom 1042 07:12:02 03:51:39
3606 5808 DEFLACHE XAVIER B.hom 870 07:12:04 03:56:35
3609 6093 French David C.hom 1185 07:12:07 03:49:37
3607 3775 Bevan Ellis C.hom 1626 07:12:07 04:16:36
3608 2691 RIBAUT JEAN-PAUL E.hom 349 07:12:07 04:27:53
3610 9918 Nogris Florian B.hom 562 07:12:12 03:33:43
3611 3231 fady yves D.hom 961 07:12:13 04:20:11
3614 11042 kenningham James C.hom 572 07:12:16 03:27:55
3613 6217 CORTIAL JEROME C.hom 1177 07:12:16 03:47:59
3612 5585 Kells David C.hom 1378 07:12:16 04:02:56
3615 4400 BONNAVENT CHRISTOPHE C.hom 1567 07:12:19 04:13:05
3616 2339 Avril Eric C.hom 1905 07:12:20 04:26:16
3617 8914 girod jérôme B.hom 624 07:12:24 03:41:35
3620 6966 VERDEJO THIERRY C.hom 1254 07:12:25 04:00:07
3619 6768 COMPAN Grégory B.hom 789 07:12:25 04:01:40
3618 6612 PONCET GILLES D.hom 687 07:12:25 03:56:28
3622 10461 pecora nicolò A.hom 228 07:12:26 03:30:23
3621 11022 Mcmurray Andrew A.hom 200 07:12:26 03:14:18
3623 1368 CORMIER Jean-Paul E.hom 385 07:12:30 04:22:42
3624 9163 MAGNAN DIDIER D.hom 384 07:12:33 03:41:46
3625 2786 Hennies Michael C.hom 1858 07:12:37 04:04:46
3626 2658 bernet chantal F.fem 61 07:12:40 04:25:13
3627 2543 meignant nicolas B.hom 1172 07:12:47 04:26:59
3628 3318 CONCAUD Gérard E.hom 288 07:12:48 04:20:50
3629 3293 DUPI Jean-Claude D.hom 987 07:12:49 04:08:30
3630 5872 Murray Robin D.hom 754 07:12:50 04:07:39
3631 1313 HURSTEL Vincent D.hom 1267 07:12:52 04:40:02
3632 3334 LE BRENN Bruno B.hom 1083 07:12:54 04:17:55
3633 1492 COSNIER MICHEL D.hom 1197 07:12:56 04:31:49
3634 8371 DUPRE DAVID C.hom 940 07:13:00 03:49:06
3635 3383 bouffard thierry C.hom 1689 07:13:02 04:11:33
3636 8922 HERMITAN christophe B.hom 633 07:13:03 03:42:28
3637 6830 Crossfield David D.hom 654 07:13:04 03:47:18
3638 1144 ramos jean marc D.hom 1211 07:13:09 04:36:16
3639 856 McGlade Philip C.hom 2113 07:13:10 04:38:37
3640 4337 seward brian D.hom 843 07:13:12 04:03:11
3641 6494 nadeau alain E.hom 188 07:13:12 03:58:50
3642 3032 Cambon Roland C.hom 1749 07:13:15 04:17:20
3643 5226 BOUTHINON David B.hom 897 07:13:16 04:00:14
3644 1939 Moura Filho Luiz D.hom 1220 07:13:17 04:39:18
3645 5288 Larsson Fredd B.hom 895 07:13:19
3646 7964 Marchand Xavier A.hom 332 07:13:20 03:52:16
3647 7756 BODIN Jean-Marc C.hom 1057 07:13:21 03:45:11
3648 2215 lemonnier arnaud B.hom 1158 07:13:21 04:18:18
3650 925 JACQUELINE François D.hom 1302 07:13:26 04:28:18
3649 3706 MERLIN LAURENT B.hom 1077 07:13:26 04:20:34
3651 4185 vezy pascal C.hom 1572 07:13:28 04:14:01
3652 6404 foss rui roque D.hom 665 07:13:32 04:02:01
3653 3545 Temby Sarah B.hom 1079 07:13:34 04:10:58
3655 10201 Buckner Ian D.hom 382 07:13:34 03:36:40
3654 10041 MARQUEZ Emmanuel B.hom 525 07:13:34 03:28:37
3656 6440 LENOIR ERIC D.hom 1101 07:13:40 04:32:52
3657 9910 ramos de sousa rui manuel B.hom 823 07:13:41 03:55:45
3658 4225 Newitt Joseph C.hom 1495 07:13:42 03:56:54
3659 4228 HOFSTEDE MARTEN B.hom 1007 07:13:44 04:01:29
3661 4784 Thauvin Pierrick C.hom 1535 07:13:47 04:13:32
3660 2115 DEHEPPE RENE E.hom 362 07:13:47 04:31:30
3662 10882 DESROUSSEAUX PIERRE B.hom 405 07:13:50 03:30:07
3664 2271 Barbacanne edmond E.hom 367 07:13:51 04:29:33
3663 8554 Beale Andrew C.hom 870 07:13:51 03:39:24
3665 6713 lançon bruno D.hom 592 07:13:52 03:49:21
3666 2069 Christie George B.hom 1179 07:13:53 04:34:25
3667 6500 reynolds sean C.hom 1284 07:13:54 04:02:50
3668 6336 Le Mouillour Jacques B.hom 825 07:13:59 04:05:45
3669 2545 QUOY Christian D.hom 1114 07:14:01 04:27:45
3670 5918 amiot virgile B.hom 909 07:14:03 04:12:28
3671 5869 Cowley Peter C.hom 1422 07:14:08 04:00:00
3672 4188 Kugener Fernand D.hom 850 07:14:08 04:00:23
3673 10371 Jensen Morten Dedenroth A.hom 427 07:14:12 04:10:44
3674 8032 Orpin James B.hom 621 07:14:12 03:36:11
3675 5985 KIFFER NICOLAS D.hom 780 07:14:13 04:05:04
3676 1055 calixte jean-philippe C.hom 1541 07:14:14 03:59:39
3677 9150 RAMIREZ Manuel B.hom 583 07:14:15 03:33:15
3678 3120 BOUQUET PIERRE D.hom 970 07:14:16 04:09:06
3679 13492 Reed Neal B.hom 1090 07:14:22 04:14:58
3680 3516 PANNIER Jean-Marc D.hom 1087 07:14:24 04:31:01
3681 6623 guerraz sébastien B.hom 781 07:14:26 03:53:16
3682 2822 missillier steve A.hom 452 07:14:27 04:17:20
3683 4186 Maury Alain D.hom 902 07:14:28 04:17:10
3684 3900 Bancewicz Tony C.hom 1738 07:14:29 04:15:01
3686 3490 Quinn Diarmuid D.hom 1085 07:14:30 04:19:18
3685 6895 Halloway Simon B.hom 826 07:14:30 03:59:51
3687 7770 RICART jerome B.hom 688 07:14:32 03:48:40
3688 456 mark shipton C.hom 1929 07:14:33 04:18:56
3690 6846 Wade Ben B.hom 797 07:14:35 03:55:48
3689 4371 Joulin Bernard E.hom 274 07:14:35 04:08:58
3691 5961 CLERGE Alain E.hom 228 07:14:36 04:08:25
3692 5580 Mollier Jerome B.hom 930 07:14:37 04:08:07
3693 4107 LAROZE Gilles D.hom 920 07:14:38 03:48:12
3694 4039 Cartier Brice E.hom 255 07:14:39 04:15:19
3695 9766 cherif bahia eric C.hom 852 07:14:40 03:38:44
3696 4333 Dubois Guillaume A.hom 402 07:14:42 04:11:37
3697 2256 Gellé Renaud C.hom 1864 07:14:43 04:12:07
3698 5956 BOUVIER Jean Pierre E.hom 215 07:14:44 03:59:15
3699 3396 Anderson Kirsty G.fem 81 07:14:45 04:12:09
3700 4946 ghesquiere jean-rene D.hom 918 07:14:47 04:08:03
3701 10127 Malle Jean marie B.hom 545 07:14:48 03:25:20
3702 3290 Sanders Hugo B.hom 1084 07:14:50 04:13:56
3703 2179 mazeyrat philippe D.hom 1142 07:14:51 04:40:52
3705 2072 dirat jean-louis E.hom 357 07:14:52 04:19:20
3704 5466 Joseph Halloran Joseph A.hom 379 07:14:52 04:10:07
3706 10831 Corrie Ben B.hom 439 07:14:56 03:30:40
3707 1453 lafont jean pierre D.hom 1200 07:15:00 04:23:21
3708 10983 MOUTHON Denis D.hom 322 07:15:02 03:34:06
3709 4192 Irving Joël D.hom 894 07:15:02 04:13:00
3710 4474 folkesson göran C.hom 1622 07:15:03 04:11:24
3711 13318 Besombes Julien A.hom 175 07:15:03 03:13:36
3712 6610 metzger philippe D.hom 617 07:15:06 03:43:45
3713 4501 WETTSTEIN JEAN-LOUIS E.hom 265 07:15:08 04:05:56
3714 2079 Glassey Conrad C.hom 1888 07:15:09 04:08:44
3715 11090 Skracek Jan B.hom 422 07:15:10 03:24:38
3716 6881 mantovani bernard D.hom 661 07:15:11 04:00:54
3717 6796 Devolder Tim C.hom 1204 07:15:13 03:59:02
3718 8174 Bracegirdle Mark C.hom 1345 07:15:14 03:51:05
3719 2124 SERVAUX Rémy C.hom 1875 07:15:24 04:19:04
3720 11260 Carr Andrew C.hom 587 07:15:25 03:28:30
3721 8771 Schmets Geoffrey B.hom 663 07:15:26 03:56:27
3722 1070 FIS JEAN GABRIEL D.hom 1243 07:15:28 04:37:41
3723 3078 MILLOUR LAURENT C.hom 1718 07:15:29 04:21:01
3724 4301 vilibor fernando B.hom 988 07:15:30 04:03:55
3725 4668 CLAUDEZ PASCAL D.hom 908 07:15:31 04:07:10
3726 13035 Keith Farquharson C.hom 1694 07:15:33 04:09:30
3727 3718 perquin camille F.fem 46 07:15:36 04:18:38
3728 5459 Morley Samuel A.hom 369 07:15:36 03:53:53
3730 8139 Atterbury Matt D.hom 485 07:15:37 03:28:04
3729 9313 Ravier Philippe D.hom 431 07:15:37 03:32:55
3732 8850 land david C.hom 1010 07:15:38 03:40:38
3731 6426 Paris Jean-Philippe C.hom 1313 07:15:38 03:55:07
3733 9281 Joury Frédéric C.hom 872 07:15:39 03:44:02
3734 4598 ROBERTS HYWEL C.hom 1557 07:15:39 04:00:14
3735 11419 DULAURENT JEAN B.hom 464 07:15:41 03:29:11
3736 7566 TOUMI BRAHIM C.hom 1124 07:15:44 03:48:36
3737 5160 tirateau christophe C.hom 1479 07:15:49 04:04:53
3738 11217 matthew david C.hom 596 07:15:52 03:30:02
3739 4077 GADIOU Pierre D.hom 900 07:15:53 04:09:14
3740 1897 HOSKINS DAVID C.hom 2081 07:15:59 04:23:01
3741 3495 Janssoone Stephane C.hom 1786 07:16:00 04:18:40
3742 7266 Power Neil B.hom 734 07:16:02 03:42:49
3743 5855 Genessey Michel D.hom 787 07:16:04 03:56:35
3744 1658 Godi Laurent C.hom 2089 07:16:05 04:29:29
3745 6330 Hulshof Toine C.hom 1222 07:16:06 03:54:32
3746 3362 BOUTEILLE Jean Paul E.hom 326 07:16:06 04:26:29
3748 6504 Grandclaude Gérard D.hom 700 07:16:08 03:50:24
3749 8355 DURET Yves-André B.hom 640 07:16:08 03:32:49
3747 9871 derouet jacques D.hom 381 07:16:08 03:31:43
3750 3350 ANGLIM BRENDAN D.hom 1049 07:16:12 04:03:35
3751 6614 BROQUIER ALAIN B.hom 793 07:16:12 04:08:09
3752 2347 HARDY LUDOVIC B.hom 1237 07:16:15 04:26:07
3753 4934 Choupault David C.hom 1655 07:16:20 04:18:56
3754 2617 Kuschnir Daniel C.hom 1924 07:16:21 04:25:14
3755 10923 Scott Mummery A.hom 243 07:16:22 03:32:34
3756 2609 Stutzmann Franck C.hom 1594 07:16:25 04:11:18
3758 6577 Male Peter C.hom 1326 07:16:26 03:48:07
3757 5148 mangin david B.hom 913 07:16:26 03:55:22
3759 4790 Koide Masaaki C.hom 1597 07:16:29 04:07:35
3760 8508 deronzier christian E.hom 127 07:16:30 03:48:08
3762 11221 MARTIN GEORGES C.hom 671 07:16:33 03:31:09
3761 6897 Bell James C.hom 1186 07:16:33 03:56:08
3763 9093 Anthony Brown C.hom 1968 07:16:34 04:19:50
3764 7063 Coljon Carmen F.fem 23 07:16:36 03:43:52
3765 4604 Bever Claude C.hom 1649 07:16:36 04:11:57
3767 4801 Besnard Philippe C.hom 1589 07:16:37 04:12:07
3766 5614 ALLARD Daniel D.hom 818 07:16:37 04:02:03
3768 3636 ader patrick D.hom 1060 07:16:39 04:19:25
3770 4312 Montalbetti Patrick B.hom 1018 07:16:40 04:07:01
3769 8810 Souza hamilton C.hom 955 07:16:40 03:42:32
3771 2391 RUFFIER LUDOVIC C.hom 1913 07:16:40 04:20:50
3772 8246 RONGIERE STEPHANE C.hom 983 07:16:42 03:33:53
3773 8002 breda marc C.hom 770 07:16:43 03:40:12
3774 1889 murphy derek C.hom 2027 07:16:44 04:22:44
3775 4161 Turner Mark C.hom 1552 07:16:46 03:53:59
3776 5760 RICOUARD DIDIER D.hom 771 07:16:46 04:02:49
3778 4097 delarbre patricia G.fem 77 07:16:49 04:20:09
3777 4031 hamon roland B.hom 991 07:16:49 04:15:44
3779 6459 Blaxell Michael C.hom 1226 07:16:50 03:51:51
3780 5492 Mazevet Joel E.hom 226 07:16:51 04:05:52
3781 4347 Prenelle Ian C.hom 1606 07:16:53 04:12:23
3782 2329 pedra jean jacques E.hom 382 07:16:55 04:28:32
3783 6322 Ibaibarriaga Jose Juis D.hom 576 07:16:59 03:55:03
3784 5607 VAN SETTEN LODEWIJK C.hom 1446 07:17:01 04:06:44
3785 9742 DUCIEL Eric D.hom 414 07:17:02 03:39:37
3786 10857 lohyer stephane A.hom 234 07:17:03 03:29:58
3787 5416 VANGASSE DAVE B.hom 904 07:17:03 03:59:37
3788 2605 Daniel William C.hom 1951 07:17:04 04:18:15
3789 8722 HOMO FRANCK B.hom 660 07:17:05 03:41:15
3790 2827 cousin alexandre C.hom 1958 07:17:06 04:22:30
3791 5222 Green Anthony B.hom 883 07:17:09 03:47:44
3792 11241 taverna bruno D.hom 334 07:17:11 03:34:22
3793 11668 Saint-André Philippe E.hom 286 07:17:14 04:06:35
3794 4032 KIENTZY Philippe D.hom 945 07:17:19 04:25:54
3795 4679 Williams Shaun A.hom 419 07:17:19 04:19:37
3796 4408 hoerner jean-claude E.hom 363 07:17:21 04:02:31
3797 5085 rhodes steven C.hom 1743 07:17:26 04:14:42
3798 1071 MAREC Patrick E.hom 421 07:17:28 04:33:58
3800 2139 JAUFFRIT YANNICK D.hom 1123 07:17:30 04:21:09
3799 6693 BARNARD TOM B.hom 866 07:17:30 04:03:24
3802 6341 alouani karim D.hom 713 07:17:32 03:54:24
3801 4921 DOUCEY ALAIN E.hom 291 07:17:32 04:02:45
3803 4664 BELLAMY Simon C.hom 1661 07:17:36 04:11:27
3806 4321 Pattemore Richard B.hom 1028 07:17:36 04:11:38
3805 8257 TRAVERS Lionel A.hom 310 07:17:36 03:47:03
3804 7518 moutarlier olivier B.hom 749 07:17:36 03:45:44
3809 5566 Garvie Michael C.hom 1444 07:17:39
3808 6032 KERHIR BERNARD E.hom 202 07:17:39 03:48:44
3807 4083 Murray Mark D.hom 939 07:17:39
3811 4143 Ågnes Mona G.fem 71 07:17:41 04:01:47
3810 6945 Deloche Laurent C.hom 1364 07:17:41 03:59:15
3812 4593 vincent damien C.hom 1614 07:17:42 04:19:46
3813 2855 DUMONTIER Franck C.hom 1923 07:17:43 04:06:07
3814 3167 CORMIER Michel E.hom 315 07:17:45 04:13:52
3815 890 MARIA de Fatima Cardoso de freitas G.fem 136 07:17:46 04:44:19
3816 5257 Leclercq Philippe C.hom 1563 07:17:47 03:52:40
3817 4277 CHAMPARNAUD Jean-Claude E.hom 292 07:17:48 04:02:58
3818 5507 Deperrois Hubert B.hom 960 07:17:49 04:17:29
3819 5742 Cousins Gary C.hom 1484 07:17:50 04:00:39
3820 2289 claveau michel E.hom 370 07:17:53 04:17:03
3821 3433 Prast Julie G.fem 86 07:17:58 04:22:02
3822 2150 carreras jean-pierre D.hom 1159 07:18:01 04:38:28
3823 1420 Glaudel Jean-Marie E.hom 423 07:18:01 04:33:42
3824 2738 Hanna David B.hom 1187 07:18:07 04:22:28
3825 1910 TRICOT Fédrik C.hom 2112 07:18:08 04:44:30
3826 5397 mcglue robert B.hom 890 07:18:09 03:59:50
3827 5637 RobertLion Sebastien C.hom 1499 07:18:11 04:00:40
3828 4944 Flechet Regis C.hom 1651 07:18:13 04:13:58
3829 11433 Astorri Luigi C.hom 682 07:18:14 03:38:28
3830 6036 dubois sébastien C.hom 1332 07:18:15 03:58:40
3831 4868 Fischer Sam C.hom 1624 07:18:16 04:13:39
3832 7185 dayries cathy G.fem 52 07:18:17 03:58:43
3833 6689 JONKER JACOB B.hom 837 07:18:17 03:53:38
3835 9212 Taillard Julien A.hom 283 07:18:18 03:31:26
3834 7921 Logan Graham C.hom 1189 07:18:18 03:46:21
3836 6737 shattock chloe F.fem 28 07:18:19 03:57:13
3837 4434 dauphin christian E.hom 281 07:18:21 04:06:27
3838 4009 Adm Alexandre C.hom 1631 07:18:23 04:08:37
3839 8350 Guiard jeanpierre C.hom 1040 07:18:25 03:45:33
3841 5116 Horta Neto Francisco D.hom 814 07:18:27 04:09:29
3840 4055 MERRIEN STEPHANE C.hom 1693 07:18:27 04:14:22
3842 4721 LEPINE Thibault D.hom 889 07:18:28 04:04:04
3843 4357 Bouchenot François D.hom 916 07:18:29 04:05:18
3844 9290 LABERINE Thomas C.hom 1327 07:18:30 03:50:13
3845 8411 Foiselle Laurent C.hom 1034 07:18:32 03:46:57
3846 5122 BENGALA JEAN MARC D.hom 815 07:18:35 04:09:47
3847 2360 SIBILE MICHEL D.hom 1156 07:18:36 04:31:42
3848 6592 Ian Orton B.hom 798 07:18:38 03:52:47
3849 6952 VERMERSCH Grégory B.hom 899 07:18:38 04:05:42
3850 9570 White Elliott A.hom 275 07:18:41 03:36:33
3851 2415 Rose Tom B.hom 686 07:18:44 03:45:07
3852 6232 Senanedj Michel C.hom 1383 07:18:49 03:56:59
3853 4372 parsons richard C.hom 1602 07:18:51 04:11:25
3854 4080 Guillet Matthias B.hom 1013 07:18:51 04:04:18
3856 3637 lequeux christophe C.hom 1768 07:18:56 04:09:32
3855 4831 Scott George A.hom 420 07:18:56 03:57:13
3857 11681 coney tom B.hom 534 07:18:56
3858 4613 Graddon John C.hom 1673 07:18:57 04:09:49
3859 863 van Dyck David C.hom 2206 07:18:57 04:18:36
3860 4735 SIBILLE Jean-Christophe B.hom 1062 07:18:58 04:13:44
3861 645 LATOUR Didier C.hom 2207 07:18:59 04:50:26
3863 5419 ARCHER DUNCAN C.hom 1454 07:19:00 03:54:36
3862 3814 Burling David C.hom 1781 07:19:00 04:08:27
3865 3645 beltrand arnaud C.hom 1861 07:19:04 04:24:25
3864 8696 MALRIC JEAN-PIERRE D.hom 516 07:19:04 03:48:13
3866 8896 MARC JEAN PHILIPPE C.hom 1005 07:19:05 03:42:03
3867 5572 Adamson James B.hom 924 07:19:05 03:55:50
3870 4263 armitage Rosie F.fem 41 07:19:06 04:07:37
3869 3291 ward peter C.hom 1691 07:19:06 04:07:31
3868 9009 RICHARDSON LIONEL C.hom 856 07:19:06
3871 5666 KALKIAS PATRICK D.hom 870 07:19:11 04:08:15
3873 9516 Brackston Rowan A.hom 292 07:19:15 03:38:45
3872 13969 court jean francois C.hom 454 07:19:15 03:13:54
3874 2508 savina claude E.hom 372 07:19:16 04:28:34
3875 5164 Mahy Nick C.hom 1584 07:19:17 03:59:25
3876 5250 ANEN Marco D.hom 925 07:19:20 04:05:42
3877 7390 BODILLARD Sylvain A.hom 344 07:19:21 04:00:03
3878 8108 WARRINGTON MARK C.hom 1014 07:19:21 03:42:12
3879 3394 CRETIN EMMANUEL C.hom 1813 07:19:22 04:25:56
3880 3057 Adams Henry B.hom 1147 07:19:22 04:15:35
3881 11098 Hedgeland James A.hom 242 07:19:22 03:23:09
3882 4676 Valentine Stephen D.hom 927 07:19:24 04:06:40
3883 4945 GUILLOT CHRISTIAN D.hom 976 07:19:26 04:08:43
3884 1285 Gareth Anderson B.hom 1204 07:19:28 04:19:31
3885 7418 TRIBOUILLARD VICTOR A.hom 335 07:19:29 03:46:05
3886 4889 Worthington Brett C.hom 1634 07:19:30 03:57:46
3887 2344 BATY Philippe E.hom 387 07:19:32 04:21:00
3888 10298 BLANCHARD Tony B.hom 619 07:19:36 03:40:00
3889 3331 maineult bruno C.hom 1837 07:19:37 04:19:24
3890 7430 plowman douglas A.hom 343 07:19:39 03:35:22
3891 9124 LE POUHAER PHILIPPE C.hom 956 07:19:41 03:38:01
3893 6977 Chick Stephen C.hom 1368 07:19:42 04:04:36
3892 13252 lemaitre remi E.hom 322 07:19:42 04:08:16
3894 3104 cressend alain D.hom 1071 07:19:43 04:23:05
3895 7546 Fox Garth C.hom 1130 07:19:43 03:46:17
3896 8560 Hoath William D.hom 717 07:19:44 03:49:54
3897 3475 Mourier Alexandre B.hom 1157 07:19:49 04:14:28
3898 7444 carpentier marc B.hom 743 07:19:51 03:44:14
3899 5513 Brizard Pierre C.hom 1542 07:19:53 04:15:01
3900 6690 O’GORMAN EOIN B.hom 814 07:19:55 03:57:55
3901 9266 Lacouline Jacques D.hom 390 07:20:00 03:40:36
3902 7479 Ugalde Rodrigo D.hom 607 07:20:01 03:47:32
3903 12064 courouge laurent C.hom 646 07:20:03 03:33:20
3904 11723 Hayter Simon B.hom 473 07:20:05 03:27:18
3905 458 lacouline michel D.hom 391 07:20:05 03:40:48
3906 12314 Green Edward C.hom 698 07:20:06 03:27:38
3907 4900 Self Charlotte G.fem 73 07:20:06 04:04:13
3908 4812 BOUCHARDON PATRICK C.hom 1701 07:20:07 04:16:50
3909 5057 Boucher Mathieu B.hom 985 07:20:08 04:03:38
3910 4177 bompard christian E.hom 284 07:20:09 04:15:37
3911 5095 Grout Steve B.hom 976 07:20:11 04:04:22
3912 10644 McGowan Simon C.hom 690 07:20:12 03:36:44
3913 2548 TOURRIERE WILLIAM C.hom 2022 07:20:14 04:27:11
3914 7464 Dubois Damien A.hom 340 07:20:22 03:49:30
3915 2060 desuzinge damien A.hom 467 07:20:23 04:28:03
3916 7789 MACIOSZEK JOEL D.hom 636 07:20:23 03:56:37
3917 3663 BELLANGER MAURICE D.hom 1093 07:20:26 03:59:13
3918 2555 avenati catherine G.fem 107 07:20:28 04:19:52
3919 1709 MARTY michel françois D.hom 1292 07:20:29 04:24:42
3920 3870 MASSELOT Grégoire B.hom 1150 07:20:33 04:21:34
3921 3904 Loc’h Cyndie F.fem 51 07:20:35 04:24:42
3922 5293 NOGUES François B.hom 983 07:20:36 04:10:05
3923 5044 wallis mark C.hom 1490 07:20:38 04:04:23
3924 5622 HERVIER GERARD E.hom 199 07:20:42 03:50:37
3926 5729 Dauchez Christophe C.hom 1516 07:20:43 04:08:01
3925 10204 Legrand Simon D.hom 451 07:20:43 03:41:31
3927 9709 Prendiville Mark C.hom 987 07:20:44 03:39:24
3928 2004 Costa Wagner C.hom 1891 07:20:45 04:15:27
3929 12980 Sinkinson Mark A.hom 219 07:20:46 03:28:21
3930 7751 Meddour Rebiai D.hom 660 07:20:51
3931 3963 LAGUETRE CHRISTOPHE B.hom 1176 07:20:53 04:27:28
3932 4541 MORET Michel E.hom 404 07:20:55 04:21:20
3933 9699 McNaught Jamie B.hom 578 07:20:55 03:38:57
3934 7485 Dougan John D.hom 624 07:20:56 04:00:01
3935 6291 Cunningham David C.hom 1388 07:20:57 04:02:56
3936 3459 Clarke laurence C.hom 1841 07:20:58 04:25:25
3937 5136 BLANC MICHEL D.hom 834 07:20:59 04:09:16
3938 3875 gautreau jean E.hom 333 07:21:00 04:14:49
3939 2649 Joly Bernard E.hom 376 07:21:01 04:21:11
3940 5328 piedade antonio D.hom 882 07:21:09 04:00:13
3941 10259 Ortner Julian C.hom 977 07:21:10 03:37:32
3942 5300 gheysen stephane D.hom 1209 07:21:11 04:17:12
3943 8223 POSSOZ GILLES C.hom 1094 07:21:12 03:49:44
3944 2514 CHABOT Christian E.hom 391 07:21:13 04:26:52
3945 8417 chebance stephane C.hom 1107 07:21:19 03:45:39
3946 7955 Lafontaine Nicolas B.hom 788 07:21:19 03:52:56
3947 6708 Duran Victor C.hom 1337 07:21:20 04:01:54
3948 6676 BREE Laurent B.hom 907 07:21:21 04:02:14
3949 9269 MACHIN Guillaume A.hom 280 07:21:21 03:33:16
3950 8294 IMBERTON Sébastien B.hom 695 07:21:23 03:42:05
3951 4178 CHENEVAL ludovic C.hom 1638 07:21:23 04:18:42
3952 13820 pinget christophe B.hom 369 07:21:28 03:19:41
3953 2461 laurens alain D.hom 1164 07:21:29 04:17:18
3954 4543 Ghibaut laurent C.hom 1642 07:21:31 04:13:08
3955 3349 NOEZ Emmanuel C.hom 1831 07:21:32 04:03:52
3956 9683 josserand jerome D.hom 405 07:21:34 03:27:26
3958 5511 FAY MURIELLE G.fem 68 07:21:36 04:07:50
3957 5147 marin olivier C.hom 2038 07:21:36 04:35:16
3959 4145 Pastore Charles C.hom 1641 07:21:37 03:59:33
3960 10252 BESSET PHILIPPE C.hom 972 07:21:38 03:46:27
3962 8312 JOHNSON LYNDON C.hom 1073 07:21:40 03:53:20
3963 3624 degroote jean-luc E.hom 327 07:21:40 04:22:29
3961 4836 Woolley Andrew D.hom 992 07:21:40 04:09:58
3964 9646 wright david B.hom 655 07:21:42 03:44:58
3965 5916 wiame jacques E.hom 267 07:21:42 04:06:49
3966 10849 VELTEN Marc A.hom 266 07:21:43 03:33:28
3967 821 Rettig Karoline G.fem 133 07:21:46 04:28:01
3968 4459 Hamel Joël D.hom 986 07:21:47 04:11:31
3969 4174 noel christian E.hom 306 07:21:48 04:01:34
3970 13168 Pallier Ludovic A.hom 225 07:21:50 03:28:53
3972 5263 jouanjus alain D.hom 836 07:21:53 03:58:30
3971 7587 Siddall Evan C.hom 1425 07:21:53 03:57:39
3973 5711 Thom Joseph A.hom 363 07:21:54 03:51:57
3974 9099 MacKay David C.hom 1426 07:21:54 03:57:45
3975 5751 Schwieler David C.hom 1580 07:21:56 04:06:29
3976 13076 Novel Fabrice B.hom 414 07:21:56 03:24:46
3977 3368 Hoffmann Nils D.hom 1097 07:21:58 04:18:09
3978 8857 liversedge tim B.hom 731 07:21:59 03:43:51
3979 4448 Guest Paul C.hom 1710 07:22:01 04:18:57
3980 6923 FAURE PIERRE D.hom 773 07:22:03
3981 4523 Bennett Tom C.hom 1906 07:22:04 04:27:02
3982 4094 PESENTI Patrick D.hom 968 07:22:05 04:09:05
3983 3793 Sanchez Eduardo C.hom 1869 07:22:06 04:21:43
3984 10717 Baertsch Christian B.hom 476 07:22:06 03:21:13
3985 5544 FAYARD Audrey F.fem 45 07:22:07 04:12:23
3987 6974 lutz patrick D.hom 847 07:22:10 04:15:49
3986 989 BROWN Chad B.hom 1421 07:22:10 04:20:57
3988 8848 Collins Kevin D.hom 545 07:22:11 03:42:17
3989 6622 Cortial Olivier C.hom 1353 07:22:12 03:56:50
3990 2189 MELONI Gautier B.hom 1281 07:22:13 04:24:45
3991 4896 Lee Matt B.hom 1061 07:22:15 04:04:48
3992 6503 BECKENDORF Daniel C.hom 1430 07:22:16 04:00:20
3993 10232 starkey ryan A.hom 306 07:22:18 03:42:40
3994 11227 DELETRAZ Arnaud A.hom 263 07:22:24 03:35:40
3995 10153 adam nathalie G.fem 58 07:22:28 03:52:49
3996 5428 Peculier Stephane C.hom 1551 07:22:30 04:18:41
3997 1902 Huntsman Simon C.hom 2167 07:22:31 04:42:34
3999 3561 MORELLON Philippe D.hom 1091 07:22:35 03:51:24
3998 4294 DESBORDES CLAUDE D.hom 982 07:22:35 04:15:11
4000 3366 DOUET Jacques E.hom 355 07:22:37 04:10:14

Voir suite -> Etape du Tour 2013 : du 4001ème au 5000ème

Haut 









Haut  
 Área privada   Direitos de autor-Copyright: Clique aqui para ler !